Time;durP1;ratioP1;P1;durP2;ratioP2;P2;SDS_P1;SDS_P2;PMS_P1;PMS_P2;Temp;Humidity;BMP_temperature;BMP_pressure;BME280_temperature;BME280_humidity;BME280_pressure;Samples;Min_cycle;Max_cycle;Signal;HPM_P1;HPM_P2
2023/09/18 00:08:34;;;;;;;10.7;7.2;;;;;;;15.56;89.29;;;;;
2023/09/18 00:18:34;;;;;;;10.7;7.2;;;;;;;15.34;91.38;;;;;
2023/09/18 00:28:34;;;;;;;10.4;5.9;;;;;;;15.39;90.56;;;;;
2023/09/18 00:38:34;;;;;;;10.4;5.9;;;;;;;15.37;89.75;;;;;
2023/09/18 00:48:34;;;;;;;10.4;5.9;;;;;;;15.3;89.94;;;;;
2023/09/18 00:59:34;;;;;;;12.2;7.5;;;;;;;15.27;89.43;;;;;
2023/09/18 01:09:34;;;;;;;12.2;7.5;;;;;;;15.13;90.57;;;;;
2023/09/18 01:19:34;;;;;;;12.2;7.5;;;;;;;15.14;90.47;;;;;
2023/09/18 01:30:34;;;;;;;9.8;7.4;;;;;;;15.06;90.19;;;;;
2023/09/18 01:40:34;;;;;;;9.8;7.4;;;;;;;15.01;89.94;;;;;
2023/09/18 01:50:34;;;;;;;9.8;7.4;;;;;;;14.92;90.98;;;;;
2023/09/18 02:01:35;;;;;;;10.7;7.9;;;;;;;14.87;91.02;;;;;
2023/09/18 02:12:34;;;;;;;10.7;7.9;;;;;;;14.82;90.48;;;;;
2023/09/18 02:23:34;;;;;;;10.7;7.9;;;;;;;14.77;91.08;;;;;
2023/09/18 02:34:34;;;;;;;12;8.2;;;;;;;14.79;91.73;;;;;
2023/09/18 02:44:34;;;;;;;12;8.2;;;;;;;14.64;91.38;;;;;
2023/09/18 02:54:34;;;;;;;12;8.2;;;;;;;14.61;91.22;;;;;
2023/09/18 03:04:34;;;;;;;10.1;7.2;;;;;;;14.52;91.17;;;;;
2023/09/18 03:15:34;;;;;;;10.1;7.2;;;;;;;14.43;90.84;;;;;
2023/09/18 03:25:34;;;;;;;10.1;7.2;;;;;;;14.34;91.01;;;;;
2023/09/18 03:36:36;;;;;;;8.8;6;;;;;;;14.32;90.61;;;;;
2023/09/18 03:46:34;;;;;;;8.8;6;;;;;;;14.22;89.98;;;;;
2023/09/18 03:57:35;;;;;;;9.6;6.8;;;;;;;14.08;90.91;;;;;
2023/09/18 04:07:34;;;;;;;9.6;6.8;;;;;;;14.03;90.45;;;;;
2023/09/18 04:17:34;;;;;;;9.6;6.8;;;;;;;13.96;89.94;;;;;
2023/09/18 04:27:34;;;;;;;11.3;7.1;;;;;;;13.92;89.96;;;;;
2023/09/18 04:37:34;;;;;;;11.3;7.1;;;;;;;13.85;89.99;;;;;
2023/09/18 04:48:34;;;;;;;11.3;7.1;;;;;;;13.84;90.33;;;;;
2023/09/18 04:58:37;;;;;;;11.3;7.3;;;;;;;13.96;90.12;;;;;
2023/09/18 05:09:34;;;;;;;11.3;7.3;;;;;;;14.04;89.55;;;;;
2023/09/18 05:19:34;;;;;;;11.3;7.3;;;;;;;14.16;89.59;;;;;
2023/09/18 05:30:35;;;;;;;10.5;7.1;;;;;;;14.49;89.91;;;;;
2023/09/18 05:40:35;;;;;;;10.5;7.1;;;;;;;14.91;90.23;;;;;
2023/09/18 05:51:35;;;;;;;10.5;7.1;;;;;;;15.57;89.91;;;;;
2023/09/18 06:01:35;;;;;;;10.9;7.4;;;;;;;16;88.97;;;;;
2023/09/18 06:12:35;;;;;;;10.9;7.4;;;;;;;16.48;87.57;;;;;
2023/09/18 06:23:35;;;;;;;10.9;7.4;;;;;;;17.1;86.88;;;;;
2023/09/18 06:33:34;;;;;;;13.3;8.9;;;;;;;17.63;85.55;;;;;
2023/09/18 06:43:35;;;;;;;13.3;8.9;;;;;;;17.97;85.85;;;;;
2023/09/18 06:54:36;;;;;;;13.3;8.9;;;;;;;18.55;85.09;;;;;
2023/09/18 07:04:35;;;;;;;10.5;8.1;;;;;;;19.21;84.58;;;;;
2023/09/18 07:14:35;;;;;;;10.5;8.1;;;;;;;19.93;83.39;;;;;
2023/09/18 07:25:34;;;;;;;10.5;8.1;;;;;;;20.79;80.95;;;;;
2023/09/18 07:35:35;;;;;;;14;8.3;;;;;;;21.32;77.03;;;;;
2023/09/18 07:46:35;;;;;;;14;8.3;;;;;;;21.92;73.83;;;;;
2023/09/18 07:56:36;;;;;;;14;8.3;;;;;;;22.54;72.27;;;;;
2023/09/18 08:06:35;;;;;;;11.6;8.5;;;;;;;23.02;68.69;;;;;
2023/09/18 08:16:35;;;;;;;11.6;8.5;;;;;;;23.31;65.21;;;;;
2023/09/18 08:27:37;;;;;;;11.6;8.5;;;;;;;23.63;66.59;;;;;
2023/09/18 08:38:35;;;;;;;11.6;8.2;;;;;;;23.77;64.23;;;;;
2023/09/18 08:48:35;;;;;;;11.6;8.2;;;;;;;23.9;64.3;;;;;
2023/09/18 08:59:35;;;;;;;11.2;8.4;;;;;;;24.21;63.88;;;;;
2023/09/18 09:09:35;;;;;;;11.2;8.4;;;;;;;24.35;61.83;;;;;
2023/09/18 09:19:38;;;;;;;11.2;8.4;;;;;;;24.55;61.69;;;;;
2023/09/18 09:30:35;;;;;;;10;7.5;;;;;;;24.8;61.07;;;;;
2023/09/18 09:40:35;;;;;;;10;7.5;;;;;;;25.28;61.93;;;;;
2023/09/18 09:51:35;;;;;;;10;7.5;;;;;;;25.37;60;;;;;
2023/09/18 10:01:35;;;;;;;9.9;7.5;;;;;;;25.45;57.49;;;;;
2023/09/18 10:11:36;;;;;;;9.9;7.5;;;;;;;25.65;57.18;;;;;
2023/09/18 10:21:35;;;;;;;9.9;7.5;;;;;;;26.07;56.36;;;;;
2023/09/18 10:32:35;;;;;;;8.9;6.2;;;;;;;26.32;56.11;;;;;
2023/09/18 10:42:35;;;;;;;8.9;6.2;;;;;;;26.21;54.66;;;;;
2023/09/18 10:52:35;;;;;;;8.9;6.2;;;;;;;26.56;54.9;;;;;
2023/09/18 11:03:35;;;;;;;9.8;6.7;;;;;;;26.94;53.62;;;;;
2023/09/18 11:13:35;;;;;;;9.8;6.7;;;;;;;27.16;54.34;;;;;
2023/09/18 11:24:35;;;;;;;9.8;6.7;;;;;;;27.01;52.08;;;;;
2023/09/18 11:34:35;;;;;;;8.1;5.4;;;;;;;27.21;51.73;;;;;
2023/09/18 11:45:35;;;;;;;8.1;5.4;;;;;;;27.33;51.2;;;;;
2023/09/18 11:56:35;;;;;;;8.1;5.4;;;;;;;27.64;51.1;;;;;
2023/09/18 12:07:35;;;;;;;9.8;6.7;;;;;;;27.55;51.36;;;;;
2023/09/18 12:17:35;;;;;;;9.8;6.7;;;;;;;27.86;49.25;;;;;
2023/09/18 12:28:35;;;;;;;8.6;5.6;;;;;;;27.76;54.16;;;;;
2023/09/18 12:38:36;;;;;;;8.6;5.6;;;;;;;27.66;47.41;;;;;
2023/09/18 12:49:35;;;;;;;8.6;5.6;;;;;;;27.76;47.77;;;;;
2023/09/18 13:00:35;;;;;;;6.8;4.4;;;;;;;27.67;47.82;;;;;
2023/09/18 13:10:35;;;;;;;6.8;4.4;;;;;;;27.85;48.47;;;;;
2023/09/18 13:21:36;;;;;;;6.8;4.4;;;;;;;27.79;47.89;;;;;
2023/09/18 13:32:35;;;;;;;6.7;4.2;;;;;;;27.83;47.29;;;;;
2023/09/18 13:43:35;;;;;;;6.7;4.2;;;;;;;27.85;46.83;;;;;
2023/09/18 13:53:35;;;;;;;6.7;4.2;;;;;;;27.59;48.55;;;;;
2023/09/18 14:04:35;;;;;;;8.3;5.8;;;;;;;28.07;46.89;;;;;
2023/09/18 14:14:35;;;;;;;8.3;5.8;;;;;;;28.35;46.42;;;;;
2023/09/18 14:25:35;;;;;;;8.3;5.8;;;;;;;27.99;47.32;;;;;
2023/09/18 14:35:36;;;;;;;8;4.7;;;;;;;28.05;47.78;;;;;
2023/09/18 14:46:36;;;;;;;8;4.7;;;;;;;27.95;44.99;;;;;
2023/09/18 14:56:35;;;;;;;8;4.7;;;;;;;27.81;48.43;;;;;
2023/09/18 15:07:35;;;;;;;8.4;4.5;;;;;;;27.54;48.19;;;;;
2023/09/18 15:17:36;;;;;;;8.4;4.5;;;;;;;27.29;49.45;;;;;
2023/09/18 15:28:35;;;;;;;12.7;5.8;;;;;;;27.09;51.92;;;;;
2023/09/18 15:39:35;;;;;;;12.7;5.8;;;;;;;26.8;54.99;;;;;
2023/09/18 15:50:35;;;;;;;12.7;5.8;;;;;;;25.95;53.32;;;;;
2023/09/18 16:01:37;;;;;;;9.3;5.9;;;;;;;25.61;54.42;;;;;
2023/09/18 16:12:35;;;;;;;9.3;5.9;;;;;;;24.5;56.64;;;;;
2023/09/18 16:22:35;;;;;;;9.3;5.9;;;;;;;24.47;56.99;;;;;
2023/09/18 16:33:35;;;;;;;8.9;6.1;;;;;;;23.88;57.63;;;;;
2023/09/18 16:44:37;;;;;;;8.9;6.1;;;;;;;23.05;59.96;;;;;
2023/09/18 16:55:35;;;;;;;8.9;6.1;;;;;;;22.28;62.44;;;;;
2023/09/18 17:05:35;;;;;;;14.2;7.7;;;;;;;21.66;65;;;;;
2023/09/18 17:16:36;;;;;;;14.2;7.7;;;;;;;21.08;66.21;;;;;
2023/09/18 17:27:35;;;;;;;14.2;7.7;;;;;;;20.48;68.24;;;;;
2023/09/18 17:37:35;;;;;;;12.3;8.3;;;;;;;20.17;68.14;;;;;
2023/09/18 17:48:35;;;;;;;12.3;8.3;;;;;;;19.75;69.88;;;;;
2023/09/18 17:58:35;;;;;;;12.3;8.3;;;;;;;19.4;71.16;;;;;
2023/09/18 18:09:35;;;;;;;14.5;9.1;;;;;;;19.09;71.93;;;;;
2023/09/18 18:20:35;;;;;;;14.5;9.1;;;;;;;19.03;71.75;;;;;
2023/09/18 18:30:35;;;;;;;11.4;9;;;;;;;19.05;70.03;;;;;
2023/09/18 18:41:36;;;;;;;11.4;9;;;;;;;19.07;69.42;;;;;
2023/09/18 18:52:35;;;;;;;11.4;9;;;;;;;18.94;69.41;;;;;
2023/09/18 19:02:35;;;;;;;11.9;10;;;;;;;18.9;70.22;;;;;
2023/09/18 19:12:35;;;;;;;11.9;10;;;;;;;18.88;70.8;;;;;
2023/09/18 19:23:35;;;;;;;11.9;10;;;;;;;18.63;72;;;;;
2023/09/18 19:34:35;;;;;;;13.9;10.6;;;;;;;18.44;73.67;;;;;
2023/09/18 19:44:35;;;;;;;13.9;10.6;;;;;;;18.49;73.16;;;;;
2023/09/18 19:55:35;;;;;;;13.9;10.6;;;;;;;18.43;72.97;;;;;
2023/09/18 20:05:35;;;;;;;18.1;12.4;;;;;;;18.37;73.01;;;;;
2023/09/18 20:16:35;;;;;;;18.1;12.4;;;;;;;18.41;72.81;;;;;
2023/09/18 20:26:35;;;;;;;18.1;12.4;;;;;;;18.35;72.72;;;;;
2023/09/18 20:36:35;;;;;;;14.4;11.9;;;;;;;18.25;73.02;;;;;
2023/09/18 20:46:35;;;;;;;14.4;11.9;;;;;;;18.18;73.36;;;;;
2023/09/18 20:57:35;;;;;;;14.4;11.9;;;;;;;18.15;73.9;;;;;
2023/09/18 21:07:35;;;;;;;12.5;9.6;;;;;;;18.17;74.09;;;;;
2023/09/18 21:18:35;;;;;;;12.5;9.6;;;;;;;18.31;73.7;;;;;
2023/09/18 21:28:35;;;;;;;12.5;9.6;;;;;;;18.38;73.59;;;;;
2023/09/18 21:38:35;;;;;;;11.7;9.1;;;;;;;18.41;73.78;;;;;
2023/09/18 21:48:35;;;;;;;11.7;9.1;;;;;;;18.48;73.27;;;;;
2023/09/18 21:59:35;;;;;;;13.3;9.7;;;;;;;18.45;73.58;;;;;
2023/09/18 22:09:35;;;;;;;13.3;9.7;;;;;;;18.45;73.44;;;;;
2023/09/18 22:20:35;;;;;;;13.3;9.7;;;;;;;18.4;73.57;;;;;
2023/09/18 22:31:35;;;;;;;11;9.2;;;;;;;18.31;74.19;;;;;
2023/09/18 22:41:35;;;;;;;11;9.2;;;;;;;18.02;76.68;;;;;
2023/09/18 22:52:36;;;;;;;11;9.2;;;;;;;17.83;76.46;;;;;
2023/09/18 23:03:36;;;;;;;13.6;10.4;;;;;;;17.79;76.91;;;;;
2023/09/18 23:13:37;;;;;;;13.6;10.4;;;;;;;17.64;78.34;;;;;
2023/09/18 23:23:36;;;;;;;13.6;10.4;;;;;;;17.54;79.72;;;;;
2023/09/18 23:33:35;;;;;;;13.4;10.4;;;;;;;17.61;79.64;;;;;
2023/09/18 23:44:37;;;;;;;13.4;10.4;;;;;;;17.55;79.61;;;;;
2023/09/18 23:54:35;;;;;;;13.4;10.4;;;;;;;17.6;79.96;;;;;
